Time;durP1;ratioP1;P1;durP2;ratioP2;P2;SDS_P1;SDS_P2;PMS_P1;PMS_P2;Temp;Humidity;BMP_temperature;BMP_pressure;BME280_temperature;BME280_humidity;BME280_pressure;Samples;Min_cycle;Max_cycle;Signal;HPM_P1;HPM_P2
2021/12/13 00:00:24;;;;;;;16.50;5.65;;;9.70;99.90;;;;;;5018861;28;20117;-63
2021/12/13 00:03:09;;;;;;;19.48;7.10;;;9.70;99.90;;;;;;5015982;28;20494;-63
2021/12/13 00:05:52;;;;;;;19.98;6.40;;;9.70;99.90;;;;;;5016568;28;20022;-63
2021/12/13 00:08:25;;;;;;;17.25;6.13;;;9.80;99.90;;;;;;5015232;28;20079;-63
2021/12/13 00:10:55;;;;;;;14.45;5.03;;;9.80;99.90;;;;;;5019629;28;20367;-64
2021/12/13 00:13:26;;;;;;;14.88;5.57;;;9.80;99.90;;;;;;5017337;28;20017;-63
2021/12/13 00:15:56;;;;;;;15.88;6.03;;;9.80;99.90;;;;;;5020806;28;20117;-64
2021/12/13 00:18:44;;;;;;;18.58;6.90;;;9.70;99.90;;;;;;5016899;28;20021;-63
2021/12/13 00:21:16;;;;;;;13.98;5.43;;;9.70;99.90;;;;;;5020331;28;20025;-63
2021/12/13 00:23:47;;;;;;;11.85;5.00;;;9.70;99.90;;;;;;5017735;28;20250;-63
2021/12/13 00:26:26;;;;;;;21.85;7.28;;;9.80;99.90;;;;;;5015532;28;20072;-63
2021/12/13 00:28:52;;;;;;;17.02;6.57;;;9.70;99.90;;;;;;5017327;28;20017;-64
2021/12/13 00:31:26;;;;;;;18.67;6.85;;;9.80;99.90;;;;;;5022200;28;20032;-64
2021/12/13 00:34:26;;;;;;;17.95;6.35;;;9.80;99.90;;;;;;5019634;28;20033;-64
2021/12/13 00:37:14;;;;;;;16.88;6.40;;;9.80;99.90;;;;;;5013007;28;20025;-63
2021/12/13 00:40:26;;;;;;;11.45;4.07;;;9.80;99.90;;;;;;5015798;28;20144;-64
2021/12/13 00:43:21;;;;;;;14.27;5.63;;;9.70;99.90;;;;;;5030406;28;20041;-64
2021/12/13 00:46:00;;;;;;;17.02;5.25;;;9.70;99.90;;;;;;5014826;28;20044;-63
2021/12/13 00:48:30;;;;;;;26.73;5.63;;;9.70;99.90;;;;;;5020679;28;20053;-63
2021/12/13 00:51:05;;;;;;;15.50;6.07;;;9.80;99.90;;;;;;5020815;28;20065;-64
2021/12/13 00:53:35;;;;;;;17.38;4.65;;;9.80;99.90;;;;;;5017552;28;20083;-64
2021/12/13 00:56:39;;;;;;;9.07;4.35;;;9.70;99.90;;;;;;5021815;28;20037;-63
2021/12/13 00:59:06;;;;;;;13.35;4.97;;;9.70;99.90;;;;;;5008136;28;20033;-63
2021/12/13 01:01:32;;;;;;;11.68;4.63;;;9.80;99.90;;;;;;5018076;28;20036;-63
2021/12/13 01:03:59;;;;;;;13.50;3.92;;;9.80;99.90;;;;;;5014019;28;20029;-63
2021/12/13 01:07:12;;;;;;;11.93;4.28;;;9.80;99.90;;;;;;5019324;28;20033;-63
2021/12/13 01:10:15;;;;;;;14.82;5.05;;;9.80;99.90;;;;;;5023195;28;20337;-63
2021/12/13 01:12:40;;;;;;;14.95;4.75;;;9.80;99.90;;;;;;5020370;28;20037;-64
2021/12/13 01:15:11;;;;;;;17.40;5.13;;;9.80;99.90;;;;;;5026665;28;20381;-63
2021/12/13 01:20:41;;;;;;;14.38;5.03;;;9.70;99.90;;;;;;5020657;28;20448;-64
2021/12/13 01:23:17;;;;;;;12.07;4.47;;;9.70;99.90;;;;;;5025029;28;20151;-63
2021/12/13 01:26:02;;;;;;;13.98;5.65;;;9.70;99.90;;;;;;5020596;28;20026;-63
2021/12/13 01:28:40;;;;;;;11.63;4.20;;;9.60;99.90;;;;;;5026257;28;20491;-63
2021/12/13 01:31:16;;;;;;;11.90;4.15;;;9.70;99.90;;;;;;5028881;28;20037;-63
2021/12/13 01:33:45;;;;;;;11.10;5.00;;;9.70;99.90;;;;;;5028569;28;20056;-63
2021/12/13 01:36:20;;;;;;;14.70;4.93;;;9.70;99.90;;;;;;5029050;28;20449;-64
2021/12/13 01:38:52;;;;;;;10.18;4.13;;;9.60;99.90;;;;;;5028679;28;20342;-63
2021/12/13 01:41:23;;;;;;;11.07;3.95;;;9.60;99.90;;;;;;5029209;28;20037;-63
2021/12/13 01:44:11;;;;;;;12.60;3.90;;;9.60;99.90;;;;;;5028455;28;20038;-63
2021/12/13 01:46:41;;;;;;;14.88;5.32;;;9.60;99.90;;;;;;5024698;28;20014;-63
2021/12/13 01:49:07;;;;;;;;;;;9.70;99.90;;;;;;5028225;28;20083;-63
2021/12/13 01:51:34;;;;;;;12.52;4.78;;;9.70;99.90;;;;;;5028316;28;20379;-63
2021/12/13 01:54:12;;;;;;;11.60;4.57;;;9.60;99.90;;;;;;5029137;28;20048;-64
2021/12/13 01:56:55;;;;;;;12.82;4.47;;;9.60;99.90;;;;;;5028161;28;20367;-64
2021/12/13 02:02:20;;;;;;;14.43;4.40;;;9.60;99.90;;;;;;5028553;28;20033;-64
2021/12/13 02:05:13;;;;;;;12.50;4.50;;;9.60;99.90;;;;;;5019329;28;20026;-63
2021/12/13 02:07:47;;;;;;;11.88;4.07;;;9.60;99.90;;;;;;5016914;28;20073;-64
2021/12/13 02:10:18;;;;;;;12.60;4.00;;;9.60;99.90;;;;;;5028510;28;20026;-64
2021/12/13 02:12:47;;;;;;;12.00;3.88;;;9.60;99.90;;;;;;5022721;28;20029;-63
2021/12/13 02:18:00;;;;;;;9.65;3.97;;;9.60;99.90;;;;;;5022815;28;20036;-63
2021/12/13 02:20:36;;;;;;;11.07;4.00;;;9.50;99.90;;;;;;5021174;28;20034;-64
2021/12/13 02:23:05;;;;;;;9.63;3.53;;;9.50;99.90;;;;;;5027196;28;20025;-63
2021/12/13 02:25:35;;;;;;;12.50;4.80;;;9.50;99.90;;;;;;5022855;28;20021;-64
2021/12/13 02:28:06;;;;;;;11.85;4.50;;;9.50;99.90;;;;;;5026906;28;20070;-63
2021/12/13 02:30:41;;;;;;;11.60;5.03;;;9.50;99.90;;;;;;5023825;28;20155;-64
2021/12/13 02:33:10;;;;;;;16.27;4.60;;;9.40;99.90;;;;;;5014006;28;20043;-63
2021/12/13 02:35:40;;;;;;;12.10;5.53;;;9.50;99.90;;;;;;5025894;28;20025;-64
2021/12/13 02:38:07;;;;;;;8.43;3.50;;;9.50;99.90;;;;;;5024712;28;20021;-63
2021/12/13 02:40:34;;;;;;;8.40;4.28;;;9.40;99.90;;;;;;5027332;28;20071;-63
2021/12/13 02:43:00;;;;;;;13.30;4.93;;;9.50;99.90;;;;;;5023023;28;20473;-63
2021/12/13 02:45:32;;;;;;;13.25;4.45;;;9.50;99.90;;;;;;5025398;28;20021;-63
2021/12/13 02:48:34;;;;;;;13.02;4.93;;;9.40;99.90;;;;;;5027069;28;20101;-63
2021/12/13 02:51:15;;;;;;;13.93;5.40;;;9.40;99.90;;;;;;5024630;28;20494;-63
2021/12/13 02:54:01;;;;;;;19.60;4.18;;;9.40;99.90;;;;;;5017353;28;20065;-63
2021/12/13 02:56:33;;;;;;;12.07;3.63;;;9.40;99.90;;;;;;5023882;28;20555;-63
2021/12/13 02:59:00;;;;;;;12.48;4.25;;;9.40;99.90;;;;;;5022567;28;20022;-63
2021/12/13 03:01:35;;;;;;;15.48;4.43;;;9.40;99.90;;;;;;5025070;28;20017;-63
2021/12/13 03:04:05;;;;;;;18.98;5.18;;;9.40;99.90;;;;;;5025314;28;20056;-64
2021/12/13 03:06:36;;;;;;;15.40;4.95;;;9.40;99.90;;;;;;5023119;28;20108;-63
2021/12/13 03:09:11;;;;;;;22.45;5.15;;;9.40;99.90;;;;;;5026497;28;20738;-64
2021/12/13 03:11:37;;;;;;;14.10;5.95;;;9.40;99.90;;;;;;5014562;28;20017;-64
2021/12/13 03:14:17;;;;;;;13.02;4.57;;;9.40;99.90;;;;;;5025128;28;20025;-64
2021/12/13 03:16:57;;;;;;;13.73;3.93;;;9.40;99.90;;;;;;5024516;28;20186;-63
2021/12/13 03:19:47;;;;;;;13.35;5.35;;;9.40;99.90;;;;;;5026505;28;20032;-63
2021/12/13 03:22:43;;;;;;;16.25;5.47;;;9.30;99.90;;;;;;5014865;28;20030;-63
2021/12/13 03:25:27;;;;;;;18.35;6.07;;;9.30;99.90;;;;;;5018726;28;20037;-63
2021/12/13 03:28:30;;;;;;;11.55;3.97;;;9.40;99.90;;;;;;5019581;28;20055;-63
2021/12/13 03:31:08;;;;;;;6.78;2.55;;;9.40;99.90;;;;;;5019809;28;20028;-63
2021/12/13 03:33:48;;;;;;;14.43;5.97;;;9.30;99.90;;;;;;5024399;28;20099;-63
2021/12/13 03:36:16;;;;;;;16.35;4.78;;;9.30;99.90;;;;;;5022355;28;20517;-64
2021/12/13 03:38:47;;;;;;;15.60;5.85;;;9.30;99.90;;;;;;5025269;28;20163;-64
2021/12/13 03:41:19;;;;;;;14.35;5.18;;;9.30;99.90;;;;;;5026847;28;20045;-64
2021/12/13 03:43:51;;;;;;;14.18;4.95;;;9.20;99.90;;;;;;5015533;28;20022;-63
2021/12/13 03:46:19;;;;;;;10.90;3.40;;;9.30;99.90;;;;;;5026884;28;20559;-63
2021/12/13 03:48:47;;;;;;;14.63;5.03;;;9.30;99.90;;;;;;5017671;28;20022;-63
2021/12/13 03:51:16;;;;;;;13.32;4.72;;;9.40;99.90;;;;;;5002224;28;20478;-63
2021/12/13 03:53:45;;;;;;;12.40;5.18;;;9.30;99.90;;;;;;5022760;28;20030;-64
2021/12/13 03:56:15;;;;;;;14.65;4.80;;;9.20;99.90;;;;;;5024581;28;20022;-63
2021/12/13 03:58:48;;;;;;;19.65;5.32;;;9.20;99.90;;;;;;5023288;28;20034;-64
2021/12/13 04:01:15;;;;;;;8.20;4.25;;;9.20;99.90;;;;;;5023394;28;20104;-63
2021/12/13 04:03:43;;;;;;;11.73;4.30;;;9.30;99.90;;;;;;5026837;28;20021;-63
2021/12/13 04:06:09;;;;;;;14.07;5.13;;;9.20;99.90;;;;;;5022862;28;20034;-63
2021/12/13 04:08:35;;;;;;;8.27;3.13;;;9.30;99.90;;;;;;5025181;28;20452;-63
2021/12/13 04:11:07;;;;;;;16.75;5.20;;;9.20;99.90;;;;;;5021994;28;20026;-63
2021/12/13 04:13:40;;;;;;;11.77;4.57;;;9.20;99.90;;;;;;5024856;28;20026;-63
2021/12/13 04:16:35;;;;;;;13.07;3.75;;;9.20;99.90;;;;;;5024087;28;20034;-63
2021/12/13 04:21:42;;;;;;;11.43;4.30;;;9.10;99.90;;;;;;5023281;28;20033;-64
2021/12/13 04:24:14;;;;;;;14.43;4.25;;;9.10;99.90;;;;;;5026607;28;20052;-63
2021/12/13 04:26:45;;;;;;;11.48;3.88;;;9.10;99.90;;;;;;5019206;28;20084;-63
2021/12/13 04:29:12;;;;;;;;;;;9.10;99.90;;;;;;5027386;28;20025;-63
2021/12/13 04:31:38;;;;;;;8.75;2.92;;;9.00;99.90;;;;;;5018282;28;19905;-64
2021/12/13 04:34:05;;;;;;;12.50;3.92;;;9.10;99.90;;;;;;5025209;28;20075;-63
2021/12/13 04:36:37;;;;;;;12.32;4.07;;;9.00;99.90;;;;;;5023264;28;20113;-63
2021/12/13 04:39:13;;;;;;;9.95;3.65;;;9.00;99.90;;;;;;5024724;28;20044;-64
2021/12/13 04:41:48;;;;;;;11.38;3.72;;;9.10;99.90;;;;;;5023387;28;20092;-64
2021/12/13 04:44:26;;;;;;;9.63;3.65;;;9.10;99.90;;;;;;5026279;28;20553;-64
2021/12/13 04:47:02;;;;;;;7.88;3.03;;;9.00;99.90;;;;;;5022871;28;20029;-64
2021/12/13 04:49:31;;;;;;;10.70;3.92;;;9.10;99.90;;;;;;5018845;28;20423;-64
2021/12/13 04:52:05;;;;;;;9.52;2.97;;;9.00;99.90;;;;;;5024068;28;20030;-64
2021/12/13 04:54:33;;;;;;;7.70;3.00;;;9.10;99.90;;;;;;5020502;28;20029;-64
2021/12/13 04:57:00;;;;;;;9.40;2.90;;;9.10;99.90;;;;;;5028242;28;20022;-64
2021/12/13 04:59:28;;;;;;;8.75;2.72;;;9.10;99.90;;;;;;5025144;28;20048;-64
2021/12/13 05:01:58;;;;;;;10.02;3.55;;;9.20;99.90;;;;;;5027300;28;20426;-64
2021/12/13 05:04:26;;;;;;;11.20;3.45;;;9.10;99.90;;;;;;5023849;28;20026;-64
2021/12/13 05:06:52;;;;;;;10.52;3.35;;;9.10;99.90;;;;;;5025974;28;20057;-64
2021/12/13 05:09:22;;;;;;;9.52;3.10;;;9.10;99.90;;;;;;5028665;28;20083;-64
2021/12/13 05:12:02;;;;;;;9.90;3.17;;;9.10;99.90;;;;;;5021555;28;20473;-64
2021/12/13 05:14:40;;;;;;;9.30;3.20;;;9.10;99.90;;;;;;5026907;28;20034;-64
2021/12/13 05:17:19;;;;;;;14.35;3.75;;;9.00;99.90;;;;;;5021451;28;20040;-64
2021/12/13 05:19:54;;;;;;;7.85;2.22;;;9.10;99.90;;;;;;5027815;28;20013;-64
2021/12/13 05:22:22;;;;;;;7.28;2.50;;;9.10;99.90;;;;;;5025399;28;20072;-64
2021/12/13 05:24:57;;;;;;;8.75;2.88;;;9.10;99.90;;;;;;5024712;28;20028;-65
2021/12/13 05:27:33;;;;;;;10.77;3.38;;;9.10;99.90;;;;;;5025117;28;20017;-64
2021/12/13 05:30:16;;;;;;;7.38;2.78;;;9.10;99.90;;;;;;5024556;28;20536;-65
2021/12/13 05:32:48;;;;;;;6.97;2.70;;;9.10;99.90;;;;;;5022749;28;20495;-64
2021/12/13 05:35:22;;;;;;;9.35;2.97;;;9.10;99.90;;;;;;5023344;28;20036;-64
2021/12/13 05:37:53;;;;;;;12.88;3.30;;;9.10;99.90;;;;;;5017047;28;20038;-65
2021/12/13 05:40:39;;;;;;;7.30;2.97;;;9.10;99.90;;;;;;5022719;28;20120;-64
2021/12/13 05:43:24;;;;;;;11.05;2.90;;;9.10;99.90;;;;;;5024679;28;20037;-64
2021/12/13 05:46:08;;;;;;;8.80;3.05;;;9.10;99.90;;;;;;5023308;28;20026;-64
2021/12/13 05:48:33;;;;;;;14.70;4.18;;;9.10;99.90;;;;;;5022143;28;20019;-64
2021/12/13 05:51:02;;;;;;;10.77;3.88;;;9.10;99.90;;;;;;5025487;28;20017;-64
2021/12/13 05:53:44;;;;;;;8.88;2.63;;;9.10;99.90;;;;;;5025101;28;20017;-64
2021/12/13 05:56:11;;;;;;;8.95;2.95;;;9.10;99.90;;;;;;5025958;28;20025;-64
2021/12/13 05:58:37;;;;;;;7.80;3.13;;;9.00;99.90;;;;;;5024572;28;20029;-65
2021/12/13 06:01:11;;;;;;;10.30;3.05;;;9.00;99.90;;;;;;5027247;28;20325;-64
2021/12/13 06:03:42;;;;;;;8.90;3.20;;;9.00;99.90;;;;;;5027477;28;20113;-64
2021/12/13 06:06:14;;;;;;;9.40;3.35;;;9.00;99.90;;;;;;5024625;28;20038;-64
2021/12/13 06:08:45;;;;;;;10.15;3.00;;;9.10;99.90;;;;;;5027327;28;20025;-65
2021/12/13 06:11:17;;;;;;;9.90;3.33;;;9.00;99.90;;;;;;5027387;28;20356;-65
2021/12/13 06:13:42;;;;;;;7.65;2.88;;;9.10;99.90;;;;;;5028948;28;20088;-64
2021/12/13 06:16:11;;;;;;;9.48;3.67;;;9.10;99.90;;;;;;5026799;28;20513;-64
2021/12/13 06:18:43;;;;;;;7.50;3.55;;;9.10;99.90;;;;;;5026937;28;20032;-64
2021/12/13 06:21:12;;;;;;;10.30;3.88;;;9.10;99.90;;;;;;5027229;28;20477;-64
2021/12/13 06:23:38;;;;;;;10.90;3.55;;;9.10;99.90;;;;;;5025178;28;20018;-64
2021/12/13 06:26:11;;;;;;;8.95;3.30;;;9.00;99.90;;;;;;5029415;28;20103;-64
2021/12/13 06:28:43;;;;;;;8.88;3.63;;;9.10;99.90;;;;;;5021388;28;20053;-64
2021/12/13 06:31:15;;;;;;;10.63;3.72;;;9.10;99.90;;;;;;5021276;28;20021;-64
2021/12/13 06:33:57;;;;;;;8.57;2.92;;;9.10;99.90;;;;;;5021833;28;20010;-64
2021/12/13 06:36:37;;;;;;;11.10;3.72;;;9.10;99.90;;;;;;5027011;28;20037;-64
2021/12/13 06:39:08;;;;;;;9.45;4.15;;;9.10;99.90;;;;;;5019084;28;20068;-64
2021/12/13 06:41:44;;;;;;;10.82;2.63;;;9.00;99.90;;;;;;5024364;28;20021;-64
2021/12/13 06:44:37;;;;;;;11.13;3.40;;;9.10;99.90;;;;;;5023971;28;20052;-65
2021/12/13 06:47:23;;;;;;;11.95;3.72;;;9.10;99.90;;;;;;5021210;28;20505;-65
2021/12/13 06:49:55;;;;;;;8.40;2.83;;;9.10;99.90;;;;;;5020138;28;20017;-64
2021/12/13 06:52:22;;;;;;;6.13;2.58;;;9.10;99.90;;;;;;5024175;28;20083;-64
2021/12/13 06:54:57;;;;;;;9.88;3.58;;;9.10;99.90;;;;;;5027170;28;20037;-64
2021/12/13 06:57:42;;;;;;;10.52;3.22;;;9.10;99.90;;;;;;5023167;28;20013;-64
2021/12/13 07:00:08;;;;;;;11.18;4.25;;;9.10;99.90;;;;;;5021397;28;20270;-64
2021/12/13 07:02:50;;;;;;;13.88;3.70;;;9.10;99.90;;;;;;5023437;28;20017;-64
2021/12/13 07:05:25;;;;;;;7.10;2.83;;;9.10;99.90;;;;;;5025727;28;20029;-64
2021/12/13 07:07:56;;;;;;;13.73;3.50;;;9.10;99.90;;;;;;5024261;28;20030;-65
2021/12/13 07:10:26;;;;;;;6.95;2.75;;;9.10;99.90;;;;;;5022756;28;20164;-64
2021/12/13 07:12:54;;;;;;;;;;;9.10;99.90;;;;;;5026504;28;20539;-64
2021/12/13 07:15:25;;;;;;;9.98;3.13;;;9.10;99.90;;;;;;5022998;28;19912;-65
2021/12/13 07:18:16;;;;;;;8.18;3.22;;;9.10;99.90;;;;;;5025955;28;20477;-64
2021/12/13 07:21:02;;;;;;;12.07;3.00;;;9.10;99.90;;;;;;5025853;28;20017;-65
2021/12/13 07:23:48;;;;;;;10.43;3.83;;;9.10;99.90;;;;;;5016237;28;20056;-64
2021/12/13 07:26:14;;;;;;;9.35;3.10;;;9.20;99.90;;;;;;5026011;28;20025;-64
2021/12/13 07:28:40;;;;;;;9.45;3.03;;;9.20;99.90;;;;;;5019950;28;20132;-65
2021/12/13 07:31:08;;;;;;;8.43;3.20;;;9.10;99.90;;;;;;5020851;28;20493;-64
2021/12/13 07:33:41;;;;;;;7.45;2.80;;;9.20;99.90;;;;;;5026253;28;20028;-64
2021/12/13 07:36:24;;;;;;;7.05;3.20;;;9.20;99.90;;;;;;5011306;28;20037;-64
2021/12/13 07:39:00;;;;;;;8.07;2.95;;;9.20;99.90;;;;;;5017420;28;20490;-64
2021/12/13 07:41:37;;;;;;;10.68;4.07;;;9.20;99.90;;;;;;5019981;28;20190;-64
2021/12/13 07:44:03;;;;;;;11.43;2.97;;;9.20;99.90;;;;;;5022129;28;20037;-64
2021/12/13 07:46:31;;;;;;;8.27;3.08;;;9.20;99.90;;;;;;5023016;28;20060;-64
2021/12/13 07:49:05;;;;;;;7.07;3.00;;;9.20;99.90;;;;;;5020087;28;20029;-64
2021/12/13 07:51:36;;;;;;;11.30;3.50;;;9.20;99.90;;;;;;5018415;28;20052;-64
2021/12/13 07:54:05;;;;;;;8.60;2.67;;;9.20;99.90;;;;;;5018116;28;20033;-64
2021/12/13 07:56:39;;;;;;;8.10;2.60;;;9.20;99.90;;;;;;5018292;28;20668;-64
2021/12/13 07:59:22;;;;;;;9.88;3.75;;;9.20;99.90;;;;;;5017572;28;20105;-64
2021/12/13 08:01:49;;;;;;;7.68;2.83;;;9.20;99.90;;;;;;5015063;28;20298;-64
2021/12/13 08:04:32;;;;;;;9.73;3.65;;;9.20;99.90;;;;;;5020684;28;20105;-64
2021/12/13 08:07:09;;;;;;;9.40;2.70;;;9.30;99.90;;;;;;5015213;28;20085;-64
2021/12/13 08:09:48;;;;;;;13.40;3.20;;;9.20;99.90;;;;;;5025526;28;20037;-64
2021/12/13 08:12:18;;;;;;;9.27;3.20;;;9.20;99.90;;;;;;5018814;28;20071;-64
2021/12/13 08:14:48;;;;;;;9.75;3.05;;;9.10;99.90;;;;;;5022684;28;20098;-65
2021/12/13 08:17:26;;;;;;;9.40;2.43;;;9.20;99.90;;;;;;5022531;28;20024;-64
2021/12/13 08:20:00;;;;;;;8.52;3.08;;;9.20;99.90;;;;;;5023194;28;20026;-64
2021/12/13 08:22:29;;;;;;;9.88;3.63;;;9.20;99.90;;;;;;5029067;28;20074;-62
2021/12/13 08:25:00;;;;;;;9.33;3.30;;;9.20;99.90;;;;;;5024314;28;20195;-62
2021/12/13 08:27:33;;;;;;;11.98;3.55;;;9.30;99.90;;;;;;5024252;28;20604;-64
2021/12/13 08:30:07;;;;;;;10.18;3.78;;;9.20;99.90;;;;;;5021622;28;20026;-64
2021/12/13 08:32:33;;;;;;;7.55;2.70;;;9.30;99.90;;;;;;5024451;28;20294;-64
2021/12/13 08:35:00;;;;;;;10.55;3.53;;;9.30;99.90;;;;;;5031918;28;20142;-64
2021/12/13 08:37:31;;;;;;;8.40;2.78;;;9.30;99.90;;;;;;5026555;28;20051;-64
2021/12/13 08:40:11;;;;;;;12.07;3.45;;;9.30;99.90;;;;;;5029528;28;20381;-65
2021/12/13 08:42:41;;;;;;;11.52;3.47;;;9.30;99.90;;;;;;5023749;28;20037;-65
2021/12/13 08:45:30;;;;;;;11.90;3.35;;;9.40;99.90;;;;;;5029116;28;20029;-64
2021/12/13 08:48:13;;;;;;;9.07;3.05;;;9.40;99.90;;;;;;5019511;28;20441;-65
2021/12/13 08:50:44;;;;;;;10.65;3.22;;;9.40;99.90;;;;;;5016471;28;20029;-65
2021/12/13 08:53:21;;;;;;;10.27;4.05;;;9.50;99.90;;;;;;5014019;28;20048;-64
2021/12/13 08:56:08;;;;;;;12.45;3.47;;;9.50;99.90;;;;;;5024044;28;20041;-64
2021/12/13 08:58:34;;;;;;;8.13;2.75;;;9.40;99.90;;;;;;5014988;28;20034;-64
2021/12/13 09:01:05;;;;;;;7.13;3.00;;;9.40;99.90;;;;;;5011735;28;20037;-64
2021/12/13 09:03:38;;;;;;;7.68;2.83;;;9.40;99.90;;;;;;5018135;28;20026;-64
2021/12/13 09:06:12;;;;;;;6.10;2.20;;;9.50;99.90;;;;;;5015009;28;20029;-64
2021/12/13 09:08:59;;;;;;;23.13;4.05;;;9.40;99.90;;;;;;5020017;28;20477;-64
2021/12/13 09:11:32;;;;;;;8.88;2.90;;;9.50;99.90;;;;;;5014650;28;20131;-65
2021/12/13 09:14:03;;;;;;;8.95;3.50;;;9.50;99.90;;;;;;5017706;28;20230;-64
2021/12/13 09:16:54;;;;;;;7.45;2.78;;;9.50;99.90;;;;;;5013058;28;20643;-64
2021/12/13 09:19:28;;;;;;;7.15;2.75;;;9.40;99.90;;;;;;5017502;28;20052;-64
2021/12/13 09:22:23;;;;;;;9.52;3.33;;;9.50;99.90;;;;;;5021825;28;20029;-65
2021/12/13 09:24:52;;;;;;;9.30;2.95;;;9.50;99.90;;;;;;5009681;28;20065;-64
2021/12/13 09:27:33;;;;;;;14.18;3.55;;;9.50;99.90;;;;;;5017037;28;20030;-65
2021/12/13 09:30:11;;;;;;;10.07;3.17;;;9.50;99.90;;;;;;5012448;28;20102;-65
2021/12/13 09:32:41;;;;;;;7.93;2.40;;;9.60;99.90;;;;;;5014107;28;20112;-64
2021/12/13 09:35:26;;;;;;;8.98;3.13;;;9.60;99.90;;;;;;5012469;28;20069;-64
2021/12/13 09:37:52;;;;;;;6.50;2.42;;;9.60;99.90;;;;;;5016045;28;20033;-64
2021/12/13 09:40:37;;;;;;;8.20;2.50;;;9.60;99.90;;;;;;5017582;28;20041;-65
2021/12/13 09:43:05;;;;;;;9.80;2.33;;;9.60;99.90;;;;;;5012214;28;20034;-64
2021/12/13 09:45:39;;;;;;;6.40;2.22;;;9.60;99.90;;;;;;5017043;28;20025;-64
2021/12/13 09:48:28;;;;;;;9.23;3.00;;;9.60;99.90;;;;;;5016193;28;20039;-65
2021/12/13 09:51:00;;;;;;;12.00;2.70;;;9.60;99.90;;;;;;5015324;28;20033;-65
2021/12/13 09:53:31;;;;;;;8.18;2.25;;;9.60;99.90;;;;;;5012787;28;20033;-64
2021/12/13 09:56:00;;;;;;;6.13;1.90;;;9.50;99.90;;;;;;5019007;28;20038;-64
2021/12/13 09:58:36;;;;;;;7.20;2.33;;;9.60;99.90;;;;;;5017640;28;20044;-64
2021/12/13 10:01:12;;;;;;;6.90;2.47;;;9.60;99.90;;;;;;5015585;28;20084;-64
2021/12/13 10:03:58;;;;;;;5.72;1.92;;;9.60;99.90;;;;;;5017955;28;20034;-64
2021/12/13 10:06:31;;;;;;;6.25;2.00;;;9.60;99.90;;;;;;5017621;28;20044;-65
2021/12/13 10:09:11;;;;;;;6.50;2.60;;;9.60;99.90;;;;;;5020434;28;20022;-64
2021/12/13 10:11:45;;;;;;;9.63;2.33;;;9.60;99.90;;;;;;5017088;28;20053;-65
2021/12/13 10:14:13;;;;;;;6.53;2.13;;;9.60;99.90;;;;;;5017664;28;20065;-65
2021/12/13 10:16:42;;;;;;;4.78;2.10;;;9.50;99.90;;;;;;5017234;28;20056;-64
2021/12/13 10:19:12;;;;;;;8.40;2.58;;;9.60;99.90;;;;;;5017403;28;20032;-64
2021/12/13 10:21:40;;;;;;;;;;;9.60;99.90;;;;;;5022305;28;20076;-64
2021/12/13 10:24:32;;;;;;;8.20;2.58;;;9.60;99.90;;;;;;5024275;28;19912;-64
2021/12/13 10:27:02;;;;;;;5.95;2.13;;;9.60;99.90;;;;;;5018607;28;20037;-64
2021/12/13 10:29:28;;;;;;;5.78;1.83;;;9.60;99.90;;;;;;5029169;28;20041;-64
2021/12/13 10:32:05;;;;;;;7.25;2.58;;;9.70;99.90;;;;;;5017768;28;20478;-64
2021/12/13 10:34:34;;;;;;;7.40;2.25;;;9.70;99.90;;;;;;5020518;28;20028;-64
2021/12/13 10:37:16;;;;;;;6.65;2.10;;;9.60;99.90;;;;;;5017535;28;20057;-65
2021/12/13 10:39:46;;;;;;;8.55;2.05;;;9.70;99.90;;;;;;5012035;28;20049;-64
2021/12/13 10:42:42;;;;;;;6.35;2.15;;;9.70;99.90;;;;;;5014049;28;20489;-64
2021/12/13 10:45:12;;;;;;;8.43;2.90;;;9.70;99.90;;;;;;5001980;28;20042;-64
2021/12/13 10:47:42;;;;;;;5.95;2.10;;;9.60;99.90;;;;;;5013469;28;20493;-64
2021/12/13 10:50:14;;;;;;;6.07;2.03;;;9.60;99.90;;;;;;5015286;28;20025;-64
2021/12/13 10:52:48;;;;;;;5.25;2.13;;;9.60;99.90;;;;;;5015820;28;20592;-64
2021/12/13 10:55:20;;;;;;;6.55;2.58;;;9.60;99.90;;;;;;5015460;28;20701;-64
2021/12/13 10:57:48;;;;;;;6.18;2.45;;;9.60;99.90;;;;;;5018895;28;20060;-64
2021/12/13 11:00:42;;;;;;;6.97;2.63;;;9.70;99.90;;;;;;5014389;28;20022;-65
2021/12/13 11:03:14;;;;;;;6.82;2.03;;;9.70;99.90;;;;;;5013385;28;20088;-64
2021/12/13 11:05:41;;;;;;;5.78;2.63;;;9.60;99.90;;;;;;5013545;28;20473;-64
2021/12/13 11:08:09;;;;;;;9.45;2.53;;;9.60;99.90;;;;;;5018154;28;20615;-64
2021/12/13 11:10:51;;;;;;;8.98;2.90;;;9.50;99.90;;;;;;5018600;28;20021;-65
2021/12/13 11:13:18;;;;;;;8.30;2.70;;;9.60;99.90;;;;;;5013431;28;20030;-65
2021/12/13 11:15:47;;;;;;;8.15;3.00;;;9.70;99.90;;;;;;5014942;28;20049;-65
2021/12/13 11:18:18;;;;;;;10.40;3.38;;;9.70;99.90;;;;;;5021982;28;20385;-65
2021/12/13 11:20:50;;;;;;;6.82;2.58;;;9.60;99.90;;;;;;5020941;28;20448;-64
2021/12/13 11:23:21;;;;;;;8.45;2.63;;;9.70;99.90;;;;;;5025962;28;20029;-65
2021/12/13 11:26:00;;;;;;;6.32;2.28;;;9.60;99.90;;;;;;5025184;28;20020;-64
2021/12/13 11:28:29;;;;;;;9.15;2.95;;;9.60;99.90;;;;;;5022490;28;20053;-64
2021/12/13 11:30:56;;;;;;;8.18;2.60;;;9.70;99.90;;;;;;5026536;28;20493;-65
2021/12/13 11:33:37;;;;;;;16.90;3.50;;;9.70;99.90;;;;;;5023546;28;20021;-64
2021/12/13 11:36:31;;;;;;;9.80;3.05;;;9.70;99.90;;;;;;5023389;28;20040;-64
2021/12/13 11:39:18;;;;;;;9.63;3.33;;;9.80;99.90;;;;;;5023079;28;20442;-65
2021/12/13 11:42:05;;;;;;;8.73;2.70;;;9.80;99.90;;;;;;5025827;28;20033;-65
2021/12/13 11:44:48;;;;;;;8.20;3.00;;;9.80;99.90;;;;;;5024696;28;20033;-65
2021/12/13 11:47:29;;;;;;;9.55;3.25;;;9.90;99.90;;;;;;5025744;28;20033;-65
2021/12/13 11:50:32;;;;;;;7.72;2.72;;;9.80;99.90;;;;;;5024255;28;20159;-65
2021/12/13 11:53:18;;;;;;;11.25;4.00;;;9.90;99.90;;;;;;5023645;28;20104;-65
2021/12/13 11:56:32;;;;;;;17.05;4.40;;;9.90;99.90;;;;;;5017301;28;20036;-65
2021/12/13 11:59:16;;;;;;;8.48;2.70;;;9.90;99.90;;;;;;5023449;28;20026;-65
2021/12/13 12:02:11;;;;;;;9.35;3.10;;;10.00;99.90;;;;;;5033197;28;20036;-62
2021/12/13 12:05:07;;;;;;;7.85;2.53;;;10.00;99.90;;;;;;5000821;28;20454;-65
2021/12/13 12:07:55;;;;;;;6.50;2.67;;;9.90;99.90;;;;;;5023181;28;20056;-64
2021/12/13 12:10:50;;;;;;;7.85;2.92;;;9.80;99.90;;;;;;5019203;28;20034;-64
2021/12/13 12:14:10;;;;;;;6.43;2.25;;;9.80;99.90;;;;;;5024440;28;20025;-65
2021/12/13 12:16:44;;;;;;;12.27;3.10;;;9.70;99.90;;;;;;5015155;28;20033;-65
2021/12/13 12:19:20;;;;;;;9.38;2.78;;;9.80;99.90;;;;;;5022770;28;20038;-63
2021/12/13 12:22:10;;;;;;;7.28;2.17;;;9.90;99.90;;;;;;5023814;28;20033;-65
2021/12/13 12:24:42;;;;;;;6.85;2.33;;;9.90;99.90;;;;;;5022995;28;20026;-64
2021/12/13 12:27:20;;;;;;;5.78;2.75;;;9.90;99.90;;;;;;5022710;28;20400;-65
2021/12/13 12:29:53;;;;;;;10.30;3.08;;;9.90;99.90;;;;;;5022712;28;20056;-65
2021/12/13 12:32:29;;;;;;;8.18;3.10;;;10.00;99.90;;;;;;5020175;28;20057;-65
2021/12/13 12:35:11;;;;;;;7.47;2.97;;;10.00;99.90;;;;;;5011004;28;20022;-65
2021/12/13 12:37:56;;;;;;;7.80;2.78;;;10.00;99.90;;;;;;5020910;28;20449;-65
2021/12/13 12:40:44;;;;;;;9.32;3.03;;;9.80;99.90;;;;;;5021645;28;20014;-64
2021/12/13 12:43:15;;;;;;;9.40;3.03;;;9.90;99.90;;;;;;5024698;28;20033;-65
2021/12/13 12:45:45;;;;;;;;;;;9.80;99.90;;;;;;5019520;28;20037;-64
2021/12/13 12:48:14;;;;;;;6.10;2.85;;;9.80;99.90;;;;;;5025263;28;19913;-64
2021/12/13 12:50:43;;;;;;;7.95;2.97;;;9.80;99.90;;;;;;5019781;28;20029;-65
2021/12/13 12:53:37;;;;;;;4.13;2.00;;;9.80;99.90;;;;;;5019503;28;20439;-64
2021/12/13 12:56:29;;;;;;;9.27;3.42;;;9.80;99.90;;;;;;5008329;28;20045;-64
2021/12/13 12:59:16;;;;;;;8.85;3.25;;;9.80;99.90;;;;;;5023920;28;20030;-64
2021/12/13 13:01:59;;;;;;;8.23;3.42;;;9.90;99.90;;;;;;5025380;28;20022;-65
2021/12/13 13:04:29;;;;;;;8.60;2.88;;;10.00;99.90;;;;;;5024442;28;20048;-65
2021/12/13 13:07:04;;;;;;;6.18;2.42;;;10.00;99.90;;;;;;5025249;28;20402;-64
2021/12/13 13:09:55;;;;;;;9.30;3.08;;;9.90;99.90;;;;;;5019931;28;20024;-64
2021/12/13 13:12:25;;;;;;;;;;;9.80;99.90;;;;;;5023723;28;20100;-64
2021/12/13 13:15:05;;;;;;;8.07;3.33;;;9.80;99.90;;;;;;5025861;28;20008;-64
2021/12/13 13:17:36;;;;;;;5.20;1.98;;;9.70;99.90;;;;;;5026572;28;20064;-64
2021/12/13 13:20:30;;;;;;;6.97;1.92;;;9.80;99.90;;;;;;5028514;28;20041;-64
2021/12/13 13:23:02;;;;;;;8.32;3.42;;;9.80;99.90;;;;;;5018576;28;20068;-64
2021/12/13 13:25:31;;;;;;;8.73;3.22;;;9.80;99.90;;;;;;5021016;28;20014;-64
2021/12/13 13:27:59;;;;;;;5.82;2.28;;;9.80;99.90;;;;;;5022412;28;20033;-64
2021/12/13 13:30:37;;;;;;;7.43;2.92;;;9.80;99.90;;;;;;5019779;28;20776;-64
2021/12/13 13:33:03;;;;;;;7.88;2.83;;;9.80;99.90;;;;;;5023057;28;20117;-64
2021/12/13 13:35:29;;;;;;;8.68;3.20;;;9.90;99.90;;;;;;5020366;28;20033;-64
2021/12/13 13:37:55;;;;;;;9.77;2.72;;;9.90;99.90;;;;;;5024871;28;20034;-65
2021/12/13 13:40:25;;;;;;;6.60;2.88;;;9.90;99.90;;;;;;5019457;28;20040;-64
2021/12/13 13:42:59;;;;;;;9.20;3.78;;;9.90;99.90;;;;;;5026066;28;20041;-65
2021/12/13 13:45:34;;;;;;;6.88;2.30;;;9.80;99.90;;;;;;5025796;28;20068;-65
2021/12/13 13:48:21;;;;;;;7.75;2.83;;;9.90;99.90;;;;;;5019446;28;20569;-64